createdAt,value
2022-11-05T00:02:53.865Z,78.70
2022-11-05T00:06:14.432Z,78.60
2022-11-05T00:09:32.676Z,78.50
2022-11-05T00:12:53.371Z,78.50
2022-11-05T00:16:14.470Z,78.50
2022-11-05T00:19:16.925Z,78.40
2022-11-05T00:22:37.438Z,78.20
2022-11-05T00:25:39.648Z,78.00
2022-11-05T00:28:44.032Z,77.90
2022-11-05T00:31:46.459Z,77.80
2022-11-05T00:34:48.782Z,77.70
2022-11-05T00:37:53.930Z,77.70
2022-11-05T00:40:56.990Z,77.40
2022-11-05T00:44:17.821Z,77.00
2022-11-05T00:47:38.374Z,77.10
2022-11-05T00:50:40.838Z,76.90
2022-11-05T00:53:43.061Z,76.90
2022-11-05T00:56:45.210Z,76.70
2022-11-05T00:59:47.356Z,76.60
2022-11-05T01:02:49.706Z,76.80
2022-11-05T01:05:54.823Z,76.60
2022-11-05T01:08:57.167Z,76.50
2022-11-05T01:11:59.317Z,76.70
2022-11-05T01:15:02.051Z,76.40
2022-11-05T01:18:04.952Z,76.20
2022-11-05T01:21:14.180Z,76.20
2022-11-05T01:24:16.312Z,76.50
2022-11-05T01:27:18.520Z,76.30
2022-11-05T01:30:20.738Z,76.40
2022-11-05T01:33:23.413Z,76.10
2022-11-05T01:36:25.691Z,75.90
2022-11-05T01:39:27.879Z,76.50
2022-11-05T01:42:32.541Z,76.00
2022-11-05T01:45:35.331Z,75.70
2022-11-05T01:48:38.571Z,75.80
2022-11-05T01:51:42.385Z,75.60
2022-11-05T01:54:45.858Z,75.70
2022-11-05T01:57:48.661Z,75.90
2022-11-05T02:00:51.225Z,75.50
2022-11-05T02:03:58.099Z,75.30
2022-11-05T02:07:00.517Z,75.40
2022-11-05T02:10:05.978Z,75.20
2022-11-05T02:13:08.342Z,75.10
2022-11-05T02:16:39.278Z,75.10
2022-11-05T02:19:52.988Z,75.20
2022-11-05T02:23:42.499Z,75.00
2022-11-05T02:27:16.407Z,75.40
2022-11-05T02:30:43.220Z,74.90
2022-11-05T02:34:12.945Z,74.70
2022-11-05T02:37:18.184Z,75.00
2022-11-05T02:40:32.894Z,74.80
2022-11-05T02:43:59.959Z,74.60
2022-11-05T02:47:18.011Z,74.80
2022-11-05T02:50:49.290Z,74.30
2022-11-05T02:54:18.483Z,74.70
2022-11-05T02:57:22.761Z,74.70
2022-11-05T03:00:55.375Z,74.10
2022-11-05T03:04:03.405Z,74.60
2022-11-05T03:07:23.412Z,74.00
2022-11-05T03:10:50.143Z,74.10
2022-11-05T03:14:10.515Z,74.00
2022-11-05T03:17:24.278Z,73.60
2022-11-05T03:20:39.888Z,73.60
2022-11-05T03:23:50.105Z,73.50
2022-11-05T03:26:57.267Z,73.50
2022-11-05T03:30:08.238Z,73.80
2022-11-05T03:33:19.263Z,73.10
2022-11-05T03:36:28.847Z,74.30
2022-11-05T03:39:36.149Z,73.20
2022-11-05T03:42:43.992Z,73.10
2022-11-05T03:45:56.258Z,72.90
2022-11-05T03:49:01.555Z,73.60
2022-11-05T03:52:07.307Z,72.80
2022-11-05T03:55:10.080Z,73.00
2022-11-05T03:58:14.037Z,72.80
2022-11-05T04:01:16.719Z,72.60
2022-11-05T04:04:18.916Z,72.70
2022-11-05T04:07:39.507Z,72.30
2022-11-05T04:11:00.246Z,72.30
2022-11-05T04:14:02.431Z,72.50
2022-11-05T04:17:07.362Z,72.40
2022-11-05T04:20:28.247Z,72.20
2022-11-05T04:23:48.835Z,72.10
2022-11-05T04:26:50.993Z,72.30
2022-11-05T04:30:11.551Z,72.20
2022-11-05T04:33:15.152Z,72.00
2022-11-05T04:36:18.291Z,72.10
2022-11-05T04:39:21.408Z,72.40
2022-11-05T04:42:23.604Z,72.00
2022-11-05T04:45:28.031Z,72.30
2022-11-05T04:48:30.210Z,71.80
2022-11-05T04:51:32.536Z,71.90
2022-11-05T04:54:34.746Z,71.80
2022-11-05T04:57:37.713Z,71.70
2022-11-05T05:00:39.966Z,71.60
2022-11-05T05:03:42.374Z,71.80
2022-11-05T05:06:44.591Z,71.40
2022-11-05T05:09:46.752Z,71.40
2022-11-05T05:12:48.985Z,71.70
2022-11-05T05:15:51.237Z,71.50
2022-11-05T05:18:54.436Z,71.20
2022-11-05T05:21:56.661Z,71.20
2022-11-05T05:25:00.157Z,71.10
2022-11-05T05:28:02.368Z,71.30
2022-11-05T05:31:04.892Z,71.00
2022-11-05T05:34:10.749Z,71.00
2022-11-05T05:37:12.922Z,70.90
2022-11-05T05:40:15.149Z,71.10
2022-11-05T05:43:17.662Z,71.10
2022-11-05T05:46:19.960Z,70.80
2022-11-05T05:49:22.158Z,70.70
2022-11-05T05:52:24.448Z,70.80
2022-11-05T05:55:26.627Z,70.80
2022-11-05T05:58:36.187Z,70.70
2022-11-05T06:01:38.816Z,70.40
2022-11-05T06:04:41.027Z,70.50
2022-11-05T06:07:43.255Z,70.40
2022-11-05T06:10:51.930Z,70.40
2022-11-05T06:13:54.113Z,70.40
2022-11-05T06:16:56.248Z,70.30
2022-11-05T06:19:58.377Z,70.40
2022-11-05T06:23:00.601Z,70.10
2022-11-05T06:26:04.857Z,70.20
2022-11-05T06:29:07.091Z,70.30
2022-11-05T06:32:09.262Z,70.10
2022-11-05T06:35:11.524Z,70.20
2022-11-05T06:38:13.694Z,69.90
2022-11-05T06:41:15.887Z,70.00
2022-11-05T06:44:18.020Z,69.80
2022-11-05T06:47:20.299Z,69.80
2022-11-05T06:50:22.617Z,70.30
2022-11-05T06:53:25.024Z,69.80
2022-11-05T06:56:27.194Z,69.70
2022-11-05T06:59:29.357Z,69.70
2022-11-05T07:02:31.536Z,69.90
2022-11-05T07:05:35.580Z,70.00
2022-11-05T07:08:38.406Z,69.90
2022-11-05T07:11:40.605Z,69.50
2022-11-05T07:14:42.757Z,69.00
2022-11-05T07:17:44.913Z,69.20
2022-11-05T07:20:47.150Z,68.70
2022-11-05T07:23:49.340Z,68.70
2022-11-05T07:26:51.545Z,68.50
2022-11-05T07:29:53.744Z,68.40
2022-11-05T07:32:56.004Z,68.60
2022-11-05T07:35:58.203Z,68.60
2022-11-05T07:39:00.807Z,68.70
2022-11-05T07:42:03.222Z,68.80
2022-11-05T07:45:09.474Z,69.00
2022-11-05T07:48:11.630Z,69.40
2022-11-05T07:51:13.764Z,69.70
2022-11-05T07:54:15.934Z,69.80
2022-11-05T07:57:18.179Z,69.50
2022-11-05T08:00:24.384Z,69.80
2022-11-05T08:03:26.742Z,69.70
2022-11-05T08:06:28.997Z,69.60
2022-11-05T08:09:31.122Z,69.70
2022-11-05T08:12:34.072Z,70.00
2022-11-05T08:15:39.486Z,70.30
2022-11-05T08:18:41.771Z,70.20
2022-11-05T08:21:43.878Z,70.60
2022-11-05T08:24:46.125Z,70.60
2022-11-05T08:27:48.708Z,70.60
2022-11-05T08:30:52.954Z,70.80
2022-11-05T08:33:59.733Z,71.00
2022-11-05T08:37:04.456Z,70.90
2022-11-05T08:40:07.380Z,71.00
2022-11-05T08:43:11.903Z,71.00
2022-11-05T08:46:14.293Z,71.10
2022-11-05T08:49:16.834Z,71.30
2022-11-05T08:52:19.090Z,71.40
2022-11-05T08:55:22.158Z,71.20
2022-11-05T08:58:24.357Z,71.20
2022-11-05T09:01:26.617Z,71.30
2022-11-05T09:04:28.904Z,71.20
2022-11-05T09:07:31.300Z,71.20
2022-11-05T09:10:33.918Z,71.40
2022-11-05T09:13:36.039Z,71.30
2022-11-05T09:16:38.283Z,71.30
2022-11-05T09:19:40.417Z,71.20
2022-11-05T09:22:43.546Z,71.30
2022-11-05T09:25:46.576Z,71.30
2022-11-05T09:28:48.749Z,71.40
2022-11-05T09:31:50.883Z,71.20
2022-11-05T09:34:53.032Z,71.20
2022-11-05T09:38:00.651Z,71.20
2022-11-05T09:41:05.320Z,71.20
2022-11-05T09:44:15.635Z,71.20
2022-11-05T09:47:32.957Z,71.50
2022-11-05T09:50:45.587Z,71.30
2022-11-05T09:53:47.901Z,71.30
2022-11-05T09:56:50.481Z,71.20
2022-11-05T09:59:55.914Z,71.10
2022-11-05T10:03:07.942Z,71.20
2022-11-05T10:06:14.545Z,71.30
2022-11-05T10:09:23.634Z,71.40
2022-11-05T10:12:37.431Z,71.30
2022-11-05T10:16:05.098Z,71.30
2022-11-05T10:19:24.436Z,71.60
2022-11-05T10:22:26.778Z,71.50
2022-11-05T10:25:34.363Z,71.70
2022-11-05T10:28:36.772Z,71.60
2022-11-05T10:31:39.213Z,71.80
2022-11-05T10:34:42.599Z,71.80
2022-11-05T10:37:46.820Z,71.80
2022-11-05T10:40:55.098Z,71.90
2022-11-05T10:44:07.958Z,72.00
2022-11-05T10:47:35.290Z,72.10
2022-11-05T10:50:37.611Z,72.20
2022-11-05T10:53:45.832Z,72.30
2022-11-05T10:56:48.404Z,72.30
2022-11-05T10:59:50.618Z,72.30
2022-11-05T11:03:01.906Z,72.40
2022-11-05T11:06:17.524Z,72.40
2022-11-05T11:09:29.003Z,72.50
2022-11-05T11:12:41.026Z,72.70
2022-11-05T11:15:43.445Z,72.70
2022-11-05T11:18:45.731Z,72.80
2022-11-05T11:22:05.909Z,72.90
2022-11-05T11:25:25.113Z,72.80
2022-11-05T11:28:49.406Z,73.00
2022-11-05T11:31:56.278Z,72.80
2022-11-05T11:34:58.620Z,72.90
2022-11-05T11:38:02.259Z,72.90
2022-11-05T11:41:29.903Z,73.00
2022-11-05T11:44:41.706Z,73.20
2022-11-05T11:47:46.257Z,73.20
2022-11-05T11:50:49.444Z,73.20
2022-11-05T11:53:57.451Z,73.20
2022-11-05T11:57:00.219Z,73.20
2022-11-05T12:00:10.010Z,73.30
2022-11-05T12:03:30.732Z,73.30
2022-11-05T12:07:03.149Z,73.40
2022-11-05T12:10:33.275Z,73.50
2022-11-05T12:13:47.720Z,73.60
2022-11-05T12:17:11.949Z,73.50
2022-11-05T12:21:00.628Z,73.60
2022-11-05T12:24:15.031Z,73.70
2022-11-05T12:27:37.987Z,73.60
2022-11-05T12:31:00.080Z,73.70
2022-11-05T12:34:20.835Z,73.60
2022-11-05T12:38:02.594Z,73.60
2022-11-05T12:41:16.808Z,73.70
2022-11-05T12:44:27.998Z,73.50
2022-11-05T12:47:57.586Z,73.40
2022-11-05T12:51:21.278Z,73.60
2022-11-05T12:54:29.410Z,73.50
2022-11-05T12:57:36.270Z,73.30
2022-11-05T13:00:42.176Z,73.20
2022-11-05T13:03:59.711Z,73.30
2022-11-05T13:07:06.800Z,73.30
2022-11-05T13:10:44.625Z,73.10
2022-11-05T13:13:59.057Z,73.20
2022-11-05T13:17:16.360Z,73.10
2022-11-05T13:20:26.602Z,73.20
2022-11-05T13:23:38.147Z,73.20
2022-11-05T13:26:55.239Z,73.30
2022-11-05T13:30:04.947Z,73.10
2022-11-05T13:33:21.122Z,73.20
2022-11-05T13:36:47.059Z,73.00
2022-11-05T13:40:00.042Z,73.10
2022-11-05T13:43:16.946Z,73.10
2022-11-05T13:46:22.713Z,73.10
2022-11-05T13:49:33.016Z,73.10
2022-11-05T13:52:47.676Z,73.00
2022-11-05T13:55:49.829Z,73.20
2022-11-05T13:58:57.937Z,73.10
2022-11-05T14:02:01.416Z,73.10
2022-11-05T14:05:05.780Z,73.10
2022-11-05T14:08:18.000Z,73.10
2022-11-05T14:11:26.095Z,72.90
2022-11-05T14:14:31.563Z,72.90
2022-11-05T14:17:55.716Z,73.00
2022-11-05T14:21:00.992Z,73.10
2022-11-05T14:24:21.720Z,73.10
2022-11-05T14:27:29.732Z,73.10
2022-11-05T14:30:47.001Z,73.10
2022-11-05T14:34:03.671Z,73.20
2022-11-05T14:37:11.987Z,73.30
2022-11-05T14:40:26.313Z,73.20
2022-11-05T14:43:33.122Z,73.30
2022-11-05T14:46:48.079Z,73.40
2022-11-05T14:50:12.066Z,73.50
2022-11-05T14:53:32.407Z,73.40
2022-11-05T14:56:53.293Z,73.40
2022-11-05T15:00:00.942Z,73.40
2022-11-05T15:03:25.098Z,73.50
2022-11-05T15:06:29.219Z,73.50
2022-11-05T15:09:40.465Z,73.50
2022-11-05T15:12:50.718Z,73.50
2022-11-05T15:15:53.023Z,73.50
2022-11-05T15:18:56.696Z,73.60
2022-11-05T15:22:03.372Z,73.70
2022-11-05T15:25:14.493Z,74.50
2022-11-05T15:28:37.186Z,73.80
2022-11-05T15:31:41.423Z,73.90
2022-11-05T15:34:54.592Z,73.90
2022-11-05T15:38:02.015Z,74.10
2022-11-05T15:41:13.779Z,74.10
2022-11-05T15:44:27.809Z,74.20
2022-11-05T15:47:31.395Z,74.20
2022-11-05T15:50:33.602Z,74.20
2022-11-05T15:54:01.828Z,74.20
2022-11-05T15:57:06.000Z,74.30
2022-11-05T16:00:23.644Z,74.30
2022-11-05T16:03:28.741Z,74.30
2022-11-05T16:06:39.581Z,74.40
2022-11-05T16:09:51.099Z,74.50
2022-11-05T16:12:53.276Z,74.50
2022-11-05T16:15:57.773Z,74.50
2022-11-05T16:19:00.709Z,74.60
2022-11-05T16:22:05.033Z,74.50
2022-11-05T16:25:31.491Z,74.60
2022-11-05T16:28:33.751Z,74.50
2022-11-05T16:31:36.262Z,74.40
2022-11-05T16:34:46.339Z,74.50
2022-11-05T16:37:52.020Z,74.60
2022-11-05T16:40:54.599Z,74.50
2022-11-05T16:43:59.165Z,74.50
2022-11-05T16:47:01.274Z,74.50
2022-11-05T16:50:14.792Z,74.40
2022-11-05T16:53:17.765Z,74.60
2022-11-05T16:56:22.319Z,74.40
2022-11-05T16:59:24.501Z,74.50
2022-11-05T17:02:27.931Z,74.40
2022-11-05T17:05:31.412Z,74.40
2022-11-05T17:08:33.648Z,74.40
2022-11-05T17:11:35.920Z,74.40
2022-11-05T17:14:38.513Z,74.40
2022-11-05T17:17:40.661Z,74.40
2022-11-05T17:20:51.548Z,74.40
2022-11-05T17:23:53.689Z,74.40
2022-11-05T17:26:55.849Z,74.40
2022-11-05T17:29:57.988Z,74.40
2022-11-05T17:33:00.254Z,74.40
2022-11-05T17:36:10.331Z,74.30
2022-11-05T17:39:12.956Z,74.30
2022-11-05T17:42:15.070Z,75.00
2022-11-05T17:45:18.282Z,74.30
2022-11-05T17:48:21.250Z,74.30
2022-11-05T17:51:23.410Z,74.20
2022-11-05T17:54:25.578Z,74.20
2022-11-05T17:57:28.687Z,74.20
2022-11-05T18:00:30.822Z,74.20
2022-11-05T18:03:33.320Z,74.20
2022-11-05T18:06:39.543Z,74.20
2022-11-05T18:09:42.191Z,74.10
2022-11-05T18:12:44.706Z,74.10
2022-11-05T18:15:46.900Z,74.00
2022-11-05T18:18:53.240Z,74.00
2022-11-05T18:21:56.104Z,74.00
2022-11-05T18:24:58.305Z,73.90
2022-11-05T18:28:01.907Z,74.00
2022-11-05T18:31:20.685Z,73.80
2022-11-05T18:34:22.950Z,73.80
2022-11-05T18:37:25.443Z,73.80
2022-11-05T18:40:27.866Z,73.80
2022-11-05T18:43:29.989Z,73.80
2022-11-05T18:49:55.558Z,73.80
2022-11-05T18:52:57.771Z,73.80
2022-11-05T18:55:59.971Z,73.70
2022-11-05T18:59:34.619Z,73.70
2022-11-05T19:02:24.582Z,73.70
2022-11-05T19:05:29.302Z,73.60
2022-11-05T19:08:33.019Z,73.60
2022-11-05T19:11:35.544Z,73.70
2022-11-05T19:14:37.687Z,73.50
2022-11-05T19:17:39.857Z,73.60
2022-11-05T19:20:42.318Z,73.40
2022-11-05T19:23:44.505Z,73.60
2022-11-05T19:26:47.619Z,73.50
2022-11-05T19:29:49.754Z,73.40
2022-11-05T19:32:51.921Z,73.50
2022-11-05T19:35:54.172Z,73.50
2022-11-05T19:38:58.352Z,73.40
2022-11-05T19:42:03.930Z,73.40
2022-11-05T19:45:30.414Z,73.40
2022-11-05T19:48:29.203Z,73.30
2022-11-05T19:51:33.092Z,73.30
2022-11-05T19:54:36.093Z,73.30
2022-11-05T19:57:38.228Z,73.20
2022-11-05T20:04:05.992Z,73.10
2022-11-05T20:07:08.376Z,73.10
2022-11-05T20:10:10.798Z,73.00
2022-11-05T20:13:19.500Z,73.00
2022-11-05T20:16:24.840Z,72.90
2022-11-05T20:19:27.074Z,72.90
2022-11-05T20:22:29.320Z,73.20
2022-11-05T20:25:31.596Z,73.00
2022-11-05T20:28:35.430Z,72.80
2022-11-05T20:31:37.578Z,72.80
2022-11-05T20:34:40.097Z,72.90
2022-11-05T20:37:42.353Z,72.80
2022-11-05T20:40:44.498Z,72.80
2022-11-05T20:43:48.133Z,72.90
2022-11-05T20:46:50.258Z,72.80
2022-11-05T20:49:52.391Z,72.70
2022-11-05T20:52:54.546Z,72.80
2022-11-05T20:55:56.678Z,72.60
2022-11-05T20:59:00.192Z,72.70
2022-11-05T21:02:02.498Z,72.60
2022-11-05T21:05:05.228Z,72.60
2022-11-05T21:08:07.467Z,72.60
2022-11-05T21:11:10.784Z,72.60
2022-11-05T21:14:13.164Z,72.60
2022-11-05T21:17:15.287Z,72.50
2022-11-05T21:20:17.833Z,72.50
2022-11-05T21:23:20.598Z,72.40
2022-11-05T21:26:22.756Z,72.50
2022-11-05T21:29:24.968Z,72.30
2022-11-05T21:32:27.184Z,72.40
2022-11-05T21:35:29.367Z,72.30
2022-11-05T21:38:31.573Z,72.20
2022-11-05T21:41:33.815Z,72.30
2022-11-05T21:44:36.122Z,72.20
2022-11-05T21:47:38.379Z,72.20
2022-11-05T21:51:01.402Z,72.20
2022-11-05T21:54:22.139Z,72.10
2022-11-05T21:57:43.216Z,72.10
2022-11-05T22:00:45.482Z,72.10
2022-11-05T22:03:47.697Z,72.00
2022-11-05T22:06:49.832Z,72.00
2022-11-05T22:09:52.433Z,72.00
2022-11-05T22:12:54.712Z,72.00
2022-11-05T22:15:57.504Z,71.90
2022-11-05T22:18:59.955Z,71.90
2022-11-05T22:22:03.761Z,71.90
2022-11-05T22:25:06.163Z,71.90
2022-11-05T22:28:08.376Z,71.80
2022-11-05T22:31:15.170Z,71.90
2022-11-05T22:34:17.602Z,71.70
2022-11-05T22:37:19.726Z,71.70
2022-11-05T22:40:23.952Z,71.50
2022-11-05T22:43:26.534Z,71.40
2022-11-05T22:46:29.133Z,71.40
2022-11-05T22:49:31.644Z,71.40
2022-11-05T22:52:33.879Z,71.30
2022-11-05T22:55:39.813Z,71.20
2022-11-05T22:58:42.714Z,71.20
2022-11-05T23:01:46.171Z,71.10
2022-11-05T23:04:49.649Z,71.00
2022-11-05T23:08:10.562Z,71.00
2022-11-05T23:11:38.742Z,71.00
2022-11-05T23:14:40.925Z,71.00
2022-11-05T23:18:01.842Z,71.00
2022-11-05T23:21:23.260Z,71.00
2022-11-05T23:24:25.592Z,70.90
2022-11-05T23:27:36.363Z,70.80
2022-11-05T23:31:00.599Z,70.80
2022-11-05T23:34:02.740Z,70.80
2022-11-05T23:37:23.889Z,70.60
2022-11-05T23:40:29.066Z,70.60
2022-11-05T23:43:49.680Z,70.50
2022-11-05T23:47:10.387Z,70.60
2022-11-05T23:50:12.522Z,70.30
2022-11-05T23:53:14.975Z,70.40
2022-11-05T23:56:17.123Z,70.30
2022-11-05T23:59:19.311Z,70.20
